createdAt,value
2024-04-09T00:04:04.457Z,15.40
2024-04-09T00:09:12.895Z,15.40
2024-04-09T00:14:33.975Z,15.30
2024-04-09T00:20:07.034Z,15.30
2024-04-09T00:25:35.519Z,15.30
2024-04-09T00:30:55.960Z,15.20
2024-04-09T00:36:03.282Z,15.10
2024-04-09T00:41:19.456Z,15.10
2024-04-09T00:46:41.377Z,15.10
2024-04-09T00:52:01.605Z,15.00
2024-04-09T00:57:15.803Z,15.00
2024-04-09T01:02:30.182Z,15.00
2024-04-09T01:08:47.758Z,15.00
2024-04-09T01:13:33.868Z,15.00
2024-04-09T01:19:00.090Z,14.90
2024-04-09T01:24:22.804Z,14.80
2024-04-09T01:29:31.755Z,14.70
2024-04-09T01:35:15.671Z,14.60
2024-04-09T01:40:18.138Z,14.60
2024-04-09T01:45:38.560Z,14.50
2024-04-09T01:50:58.721Z,14.60
2024-04-09T01:56:19.112Z,14.60
2024-04-09T02:01:28.853Z,14.50
2024-04-09T02:06:38.968Z,14.40
2024-04-09T02:12:30.436Z,14.30
2024-04-09T02:17:30.520Z,14.30
2024-04-09T02:22:35.203Z,14.30
2024-04-09T02:27:37.646Z,14.20
2024-04-09T02:33:01.516Z,14.20
2024-04-09T02:38:07.169Z,14.20
2024-04-09T02:43:17.424Z,14.20
2024-04-09T02:48:35.631Z,14.20
2024-04-09T02:59:39.947Z,14.20
2024-04-09T03:04:46.293Z,14.10
2024-04-09T03:09:57.385Z,14.00
2024-04-09T03:15:01.355Z,14.00
2024-04-09T03:20:06.608Z,13.90
2024-04-09T03:25:28.781Z,13.90
2024-04-09T03:30:35.095Z,13.90
2024-04-09T03:35:58.927Z,13.80
2024-04-09T03:41:10.563Z,13.70
2024-04-09T03:46:24.949Z,13.60
2024-04-09T03:51:32.356Z,13.60
2024-04-09T03:56:45.803Z,13.60
2024-04-09T04:01:55.315Z,13.50
2024-04-09T04:06:59.022Z,13.50
2024-04-09T04:12:14.111Z,13.40
2024-04-09T04:17:22.092Z,13.40
2024-04-09T04:22:24.601Z,13.40
2024-04-09T04:27:31.739Z,13.40
2024-04-09T04:32:40.966Z,13.30
2024-04-09T04:37:47.296Z,13.20
2024-04-09T04:43:01.707Z,13.20
2024-04-09T04:48:15.621Z,13.10
2024-04-09T04:53:34.142Z,13.10
2024-04-09T04:58:48.701Z,13.00
2024-04-09T05:03:55.474Z,12.90
2024-04-09T05:08:57.639Z,12.80
2024-04-09T05:13:59.647Z,12.80
2024-04-09T05:19:04.002Z,12.80
2024-04-09T05:24:06.316Z,12.80
2024-04-09T05:29:08.370Z,12.80
2024-04-09T05:34:10.475Z,12.70
2024-04-09T05:39:13.985Z,12.60
2024-04-09T05:44:15.937Z,12.50
2024-04-09T05:49:21.770Z,12.50
2024-04-09T05:54:23.904Z,12.30
2024-04-09T05:59:25.945Z,12.20
2024-04-09T06:04:28.212Z,12.00
2024-04-09T06:09:39.151Z,11.90
2024-04-09T06:14:41.237Z,11.70
2024-04-09T06:19:44.511Z,11.60
2024-04-09T06:24:49.680Z,11.50
2024-04-09T06:29:52.374Z,11.50
2024-04-09T06:34:54.777Z,11.40
2024-04-09T06:39:56.725Z,11.30
2024-04-09T06:44:59.154Z,11.10
2024-04-09T06:50:05.776Z,11.10
2024-04-09T06:55:08.596Z,11.10
2024-04-09T07:00:11.322Z,11.00
2024-04-09T07:05:13.428Z,11.00
2024-04-09T07:10:15.463Z,11.10
2024-04-09T07:15:17.642Z,11.10
2024-04-09T07:20:19.715Z,11.10
2024-04-09T07:25:21.853Z,11.20
2024-04-09T07:30:24.166Z,11.30
2024-04-09T07:35:26.229Z,11.30
2024-04-09T07:40:28.282Z,11.40
2024-04-09T07:45:31.183Z,11.40
2024-04-09T07:50:33.358Z,11.40
2024-04-09T07:55:37.125Z,11.30
2024-04-09T08:00:40.740Z,11.40
2024-04-09T08:05:43.973Z,11.40
2024-04-09T08:10:46.862Z,11.40
2024-04-09T08:15:51.807Z,11.50
2024-04-09T08:20:54.155Z,11.50
2024-04-09T08:25:56.469Z,11.40
2024-04-09T08:31:07.290Z,11.50
2024-04-09T08:36:09.685Z,11.50
2024-04-09T08:41:11.858Z,11.70
2024-04-09T08:46:14.739Z,11.80
2024-04-09T08:51:18.394Z,11.80
2024-04-09T08:56:20.910Z,11.90
2024-04-09T09:01:32.781Z,12.00
2024-04-09T09:06:47.992Z,12.00
2024-04-09T09:11:50.407Z,12.00
2024-04-09T09:16:52.404Z,12.00
2024-04-09T09:21:54.602Z,12.10
2024-04-09T09:27:05.595Z,12.20
2024-04-09T09:32:14.307Z,12.40
2024-04-09T09:37:16.524Z,12.60
2024-04-09T09:42:20.260Z,12.70
2024-04-09T09:47:23.839Z,12.70
2024-04-09T09:52:26.011Z,12.70
2024-04-09T09:57:31.724Z,12.80
2024-04-09T10:02:35.393Z,12.90
2024-04-09T10:07:38.126Z,12.80
2024-04-09T10:12:42.338Z,12.70
2024-04-09T10:18:05.326Z,12.70
2024-04-09T10:23:11.290Z,12.70
2024-04-09T10:28:28.672Z,12.70
2024-04-09T10:33:35.108Z,12.80
2024-04-09T10:38:44.155Z,12.80
2024-04-09T10:43:47.895Z,12.90
2024-04-09T10:48:50.405Z,13.00
2024-04-09T10:54:02.035Z,13.00
2024-04-09T10:59:15.383Z,13.00
2024-04-09T11:04:21.003Z,12.90
2024-04-09T11:09:23.504Z,12.80
2024-04-09T11:14:25.640Z,12.70
2024-04-09T11:19:29.484Z,12.60
2024-04-09T11:24:32.048Z,12.70
2024-04-09T11:29:36.300Z,12.60
2024-04-09T11:34:38.708Z,12.60
2024-04-09T11:39:46.955Z,12.70
2024-04-09T11:45:00.612Z,12.80
2024-04-09T11:50:05.629Z,12.80
2024-04-09T11:55:14.303Z,12.90
2024-04-09T12:00:18.096Z,12.80
2024-04-09T12:05:20.288Z,12.90
2024-04-09T12:10:23.794Z,13.00
2024-04-09T12:15:25.933Z,13.00
2024-04-09T12:20:28.242Z,12.90
2024-04-09T12:25:30.258Z,12.90
2024-04-09T12:30:32.408Z,12.90
2024-04-09T12:35:35.235Z,12.90
2024-04-09T12:40:37.703Z,13.00
2024-04-09T12:45:39.968Z,13.20
2024-04-09T12:50:42.292Z,13.20
2024-04-09T12:55:46.458Z,13.40
2024-04-09T13:01:01.704Z,13.40
2024-04-09T13:06:10.806Z,13.40
2024-04-09T13:11:13.229Z,13.50
2024-04-09T13:21:21.213Z,13.40
2024-04-09T13:26:23.639Z,13.50
2024-04-09T13:31:25.795Z,13.60
2024-04-09T13:36:27.994Z,13.70
2024-04-09T13:41:30.504Z,13.80
2024-04-09T13:46:32.588Z,13.90
2024-04-09T13:51:34.620Z,14.20
2024-04-09T13:56:36.897Z,14.40
2024-04-09T14:01:38.839Z,14.50
2024-04-09T14:06:41.465Z,14.50
2024-04-09T14:11:43.664Z,14.50
2024-04-09T14:16:45.847Z,14.30
2024-04-09T14:21:48.006Z,14.00
2024-04-09T14:26:50.261Z,14.20
2024-04-09T14:31:52.321Z,14.40
2024-04-09T14:36:55.281Z,14.10
2024-04-09T14:41:58.092Z,13.60
2024-04-09T14:47:00.295Z,13.30
2024-04-09T14:52:03.117Z,12.90
2024-04-09T14:57:05.632Z,12.60
2024-04-09T15:02:11.882Z,12.90
2024-04-09T15:07:14.015Z,13.60
2024-04-09T15:12:16.284Z,13.60
2024-04-09T15:17:18.378Z,13.30
2024-04-09T15:22:20.512Z,13.00
2024-04-09T15:27:22.824Z,12.90
2024-04-09T15:32:25.053Z,13.00
2024-04-09T15:37:28.200Z,13.10
2024-04-09T15:42:30.321Z,12.90
2024-04-09T15:47:32.696Z,12.80
2024-04-09T15:52:35.342Z,12.60
2024-04-09T15:57:38.028Z,12.30
2024-04-09T16:02:40.895Z,11.50
2024-04-09T16:07:43.308Z,10.90
2024-04-09T16:12:45.427Z,10.40
2024-04-09T16:17:47.978Z,10.20
2024-04-09T16:22:50.796Z,10.20
2024-04-09T16:27:53.018Z,10.30
2024-04-09T16:32:58.119Z,10.60
2024-04-09T16:38:02.310Z,10.90
2024-04-09T16:43:05.463Z,11.10
2024-04-09T16:48:08.591Z,11.20
2024-04-09T16:53:10.869Z,11.30
2024-04-09T16:58:13.326Z,11.20
2024-04-09T17:03:17.424Z,11.10
2024-04-09T17:08:19.783Z,11.00
2024-04-09T17:13:23.163Z,10.80
2024-04-09T17:18:26.236Z,10.70
2024-04-09T17:23:29.141Z,10.60
2024-04-09T17:28:31.753Z,10.60
2024-04-09T17:33:34.293Z,10.50
2024-04-09T17:38:37.858Z,10.40
2024-04-09T17:43:40.724Z,10.30
2024-04-09T17:48:43.734Z,10.20
2024-04-09T17:53:46.101Z,10.20
2024-04-09T17:58:48.143Z,10.20
2024-04-09T18:03:50.415Z,10.10
2024-04-09T18:08:53.120Z,10.00
2024-04-09T18:13:55.307Z,9.90
2024-04-09T18:18:57.660Z,9.80
2024-04-09T18:24:00.923Z,9.70
2024-04-09T18:29:04.887Z,9.70
2024-04-09T18:34:07.728Z,9.70
2024-04-09T18:39:12.096Z,9.70
2024-04-09T18:44:14.417Z,9.70
2024-04-09T18:49:16.651Z,9.70
2024-04-09T19:00:35.915Z,9.70
2024-04-09T19:06:57.859Z,9.70
2024-04-09T19:13:06.235Z,9.60
2024-04-09T19:18:30.158Z,9.50
2024-04-09T19:36:02.695Z,9.50
2024-04-09T19:41:05.935Z,9.50
2024-04-09T19:44:48.311Z,9.40
2024-04-09T19:47:32.101Z,9.40
2024-04-09T19:59:47.065Z,9.40
2024-04-09T20:05:53.433Z,9.50
2024-04-09T20:11:32.249Z,9.50
2024-04-09T20:17:23.905Z,9.50
2024-04-09T20:28:00.228Z,9.50
2024-04-09T20:33:38.575Z,9.50
2024-04-09T20:39:15.052Z,9.60
2024-04-09T20:51:10.615Z,9.60
2024-04-09T20:57:29.811Z,9.60
2024-04-09T21:45:05.965Z,9.90
2024-04-09T21:56:37.998Z,9.90
2024-04-09T22:21:48.997Z,9.90
2024-04-09T22:38:13.099Z,9.80
2024-04-09T22:46:51.892Z,9.80
2024-04-09T22:53:50.554Z,9.60
2024-04-09T23:03:42.289Z,9.50
2024-04-09T23:09:18.105Z,9.40
2024-04-09T23:15:03.504Z,9.40
2024-04-09T23:20:20.035Z,9.40
2024-04-09T23:26:07.415Z,9.30
2024-04-09T23:31:55.008Z,9.20
2024-04-09T23:37:28.519Z,9.20
2024-04-09T23:43:50.954Z,9.20
2024-04-09T23:54:19.079Z,9.20
2024-04-09T23:59:43.815Z,9.30
